Huntington Beach, CA

8:38 AM PDT on October 22, 2014 (GMT -0700)
Bolsa Chica Wetlands | Change Station
CLOSE
Current Station
Personal Weather Station
Location: Huntington Beach, CA
Elevation: 3 ft
Nearby Weather Stations

Elev 3 ft 33.71 °N, 118.03 °W | Updated 1 minute ago

Partly Cloudy
Partly Cloudy
61.8 °F
Feels Like 61.8 °F
N
0.0
Wind Variable Wind from ENE
Gusts 0.0 mph

Today
High -- | Low -- °F
--% Chance of Precip.
Yesterday
High -- | Low -- °F
Precip. -- in
7:02 AM 6:09 PM
Waning Crescent, 2% visible
Pressure 29.94 in
Visibility 10.0 miles
Clouds Few 1000 ft
Dew Point 61 °F
Humidity 98%
Rainfall 0.00 in
Snow Depth Not available.
UV 0 out of 12
Pollen 4.50 out of 12
Ozone Good
Flu Activity Sporadic
METAR KSLI 221458Z 04003KT 10SM FEW010 14/13 A2993 RMK AO2A SLP138 T01360130 52019

More Conditions Fewer Conditions

Pressure 29.94 in
Visibility 10.0 miles
Clouds Few 1000 ft
Dew Point 61 °F
Humidity 98%
Rainfall 0.00 in
Snow Depth Not available.
UV 0 out of 12
Pollen 4.50 out of 12
Ozone Good
Flu Activity Sporadic
METAR KSLI 221458Z 04003KT 10SM FEW010 14/13 A2993 RMK AO2A SLP138 T01360130 52019

More Conditions Fewer Conditions

10-Day Weather Forecast

Almanac

Astronomy

Oct. 22, 2014 Rise Set
Actual Time 7:02 AM PDT 6:09 PM PDT
Civil Twilight 6:37 AM PDT 6:35 PM PDT
Nautical Twilight 6:08 AM PDT 7:04 PM PDT
Astronomical Twilight 5:39 AM PDT 7:33 PM PDT
Moon 5:51 AM PDT 5:36 PM PDT
Length of Visible Light 11h 57m
Length of Day
11h 07m
Tomorrow will be 1m 57s shorter.
Waning Crescent, 2% of the Moon is Illuminated
Today
Waning Crescent
Oct 23
New
Oct 30
First Quarter
Nov 6
Full
Nov 14
Last Quarter

Today's Extremes

State Highs State Lows

Community

WunderPhotos

Upload Photos

1,763,949 photos uploaded!

Nearby

Air Quality

  Air Quality AQ Index Pollutant
Current Good
OZONE
Wednesday Good
PM10
Wednesday Good
OZONE
Wednesday Good
CO
Wednesday Good
NO2

Snow Depth

Station Depth Elevation
Virginia Lakes Ridge 0 in 9200 ft
Leavitt Lake 1 in 9400 ft
Leavitt Meadows 1 in 7200 ft
Sonora Pass 0 in 8800 ft
Summit Meadow 1 in 9122 ft

Earthquake Activity

City Distance Mag. Time & Date
No recent earthquake activity has been reported nearby.
Minimum magnitude displayed is 2.5.

Coastal Water Temperatures

Place Temperature
Santa Monica Pier 69.1 °F
Los Angeles, CA 69.1 °F
La Jolla, CA 70.0 °F

Nearby Weather Stations